Rome, Italy
Current Conditions -  °F | °C
As of 9:50 PM on Tuesday 21 Oct 2014 (Local Time) from LIRU Reporting Station
Scattered Clouds Scattered Clouds  
Wind Chill: 20°   Ceiling: Unl
Heat Index: 20°   Visibility: 6mi
Dew Point: 19°   Wind: 3mph
Humidity: 94%   Direction: NA
Pressure: 29.83"   Gusts: NA
Location:  41.9°N, 12.48°E
Report Text: LIRU 211950Z VRB03KT 9999 SCT040 20/19 Q1010
Loading
Personal Weather Stations






























Interactive Weather Map
Tropical Storm Tracking
New forecast layout! Learn more

10-Day Weather Forecast

Advertisements
Track Severe Weather on mobile